createdAt,value
2023-04-03T00:00:03.414Z,12
2023-04-03T00:10:08.954Z,14
2023-04-03T00:20:15.997Z,13
2023-04-03T00:30:22.092Z,11
2023-04-03T00:40:30.417Z,12
2023-04-03T00:50:36.617Z,12
2023-04-03T01:00:40.160Z,12
2023-04-03T01:10:48.281Z,15
2023-04-03T01:20:56.888Z,14
2023-04-03T01:31:04.047Z,14
2023-04-03T01:41:12.120Z,16
2023-04-03T01:51:18.789Z,15
2023-04-03T02:01:25.270Z,14
2023-04-03T02:11:31.896Z,14
2023-04-03T02:21:38.765Z,12
2023-04-03T02:31:45.387Z,13
2023-04-03T02:41:51.019Z,12
2023-04-03T02:51:56.861Z,12
2023-04-03T03:02:03.034Z,12
2023-04-03T03:12:09.133Z,13
2023-04-03T03:22:15.235Z,13
2023-04-03T03:32:21.996Z,11
2023-04-03T03:42:28.690Z,10
2023-04-03T03:52:35.567Z,10
2023-04-03T04:02:40.923Z,12
2023-04-03T04:12:46.605Z,12
2023-04-03T04:22:51.621Z,9
2023-04-03T04:32:57.428Z,11
2023-04-03T04:43:04.853Z,10
2023-04-03T04:53:10.081Z,10
2023-04-03T05:03:15.732Z,12
2023-04-03T05:13:22.189Z,13
2023-04-03T05:23:27.210Z,14
2023-04-03T05:33:32.388Z,13
2023-04-03T05:43:39.219Z,16
2023-04-03T05:53:46.026Z,14
2023-04-03T06:03:52.646Z,15
2023-04-03T06:13:58.486Z,15
2023-04-03T06:24:03.714Z,14
2023-04-03T06:34:09.934Z,13
2023-04-03T06:44:16.544Z,14
2023-04-03T06:54:23.190Z,14
2023-04-03T07:04:28.842Z,12
2023-04-03T07:14:34.346Z,14
2023-04-03T07:24:43.590Z,11
2023-04-03T07:34:46.378Z,13
2023-04-03T07:44:51.682Z,14
2023-04-03T07:54:57.491Z,15
2023-04-03T08:05:05.187Z,10
2023-04-03T08:15:09.556Z,13
2023-04-03T08:25:32.573Z,14
2023-04-03T08:35:26.672Z,11
2023-04-03T08:45:32.459Z,9
2023-04-03T08:55:39.527Z,9
2023-04-03T09:05:44.022Z,10
2023-04-03T09:16:06.162Z,9
2023-04-03T09:26:01.216Z,10
2023-04-03T09:36:29.221Z,9
2023-04-03T09:46:24.237Z,8
2023-04-03T09:56:30.094Z,11
2023-04-03T10:06:37.150Z,8
2023-04-03T10:16:41.217Z,9
2023-04-03T10:26:50.464Z,9
2023-04-03T10:36:53.780Z,6
2023-04-03T10:47:00.827Z,9
2023-04-03T10:57:12.300Z,9
2023-04-03T11:07:12.345Z,7
2023-04-03T11:17:35.650Z,8
2023-04-03T11:27:28.496Z,7
2023-04-03T11:37:34.629Z,7
2023-04-03T11:47:43.281Z,6
2023-04-03T11:57:46.362Z,7
2023-04-03T12:07:52.365Z,6
2023-04-03T12:17:59.036Z,9
2023-04-03T12:28:04.981Z,8
2023-04-03T12:38:11.455Z,9
2023-04-03T12:48:18.091Z,8
2023-04-03T12:58:23.675Z,8
2023-04-03T13:08:30.105Z,7
2023-04-03T13:18:38.579Z,6
2023-04-03T13:28:57.665Z,8
2023-04-03T13:38:51.126Z,8
2023-04-03T13:49:09.209Z,9
2023-04-03T13:59:01.488Z,7
2023-04-03T14:09:25.030Z,8
2023-04-03T14:19:18.474Z,5
2023-04-03T14:29:27.077Z,10
2023-04-03T14:39:32.613Z,9
2023-04-03T14:49:38.716Z,9
2023-04-03T14:59:47.416Z,9
2023-04-03T15:09:53.071Z,11
2023-04-03T15:19:59.506Z,11
2023-04-03T15:30:07.041Z,9
2023-04-03T15:40:13.453Z,7
2023-04-03T15:50:20.079Z,8
2023-04-03T16:00:24.740Z,12
2023-04-03T16:10:29.520Z,8
2023-04-03T16:20:37.157Z,9
2023-04-03T16:30:45.873Z,8
2023-04-03T16:40:51.545Z,8
2023-04-03T16:50:59.083Z,8
2023-04-03T17:01:03.850Z,9
2023-04-03T17:11:10.296Z,7
2023-04-03T17:21:17.772Z,7
2023-04-03T17:31:25.890Z,7
2023-04-03T17:41:32.676Z,7
2023-04-03T17:51:38.678Z,8
2023-04-03T18:01:45.836Z,7
2023-04-03T18:11:53.315Z,10
2023-04-03T18:21:58.851Z,10
2023-04-03T18:32:07.941Z,12
2023-04-03T18:42:13.598Z,11
2023-04-03T18:52:20.608Z,7
2023-04-03T19:02:26.487Z,7
2023-04-03T19:12:32.533Z,5
2023-04-03T19:22:39.058Z,7
2023-04-03T19:32:47.841Z,6
2023-04-03T19:42:52.829Z,10
2023-04-03T19:53:00.378Z,8
2023-04-03T20:03:08.339Z,8
2023-04-03T20:13:14.939Z,7
2023-04-03T20:23:21.348Z,9
2023-04-03T20:33:27.808Z,9
2023-04-03T20:43:33.546Z,7
2023-04-03T20:53:40.677Z,8
2023-04-03T21:03:48.286Z,7
2023-04-03T21:13:55.161Z,11
2023-04-03T21:24:01.619Z,9
2023-04-03T21:34:07.251Z,12
2023-04-03T21:44:12.814Z,9
2023-04-03T21:54:20.639Z,10
2023-04-03T22:04:26.618Z,7
2023-04-03T22:14:33.313Z,8
2023-04-03T22:24:39.737Z,7
2023-04-03T22:34:45.814Z,6
2023-04-03T22:44:51.527Z,8
2023-04-03T22:55:01.477Z,9
2023-04-03T23:05:05.308Z,7
2023-04-03T23:15:12.297Z,9
2023-04-03T23:25:18.968Z,17
2023-04-03T23:35:25.059Z,17
2023-04-03T23:45:32.867Z,18
2023-04-03T23:55:38.227Z,22
